createdAt,value
2019-01-26T00:00:35.543Z,0.84
2019-01-26T00:01:35.676Z,0.81
2019-01-26T00:02:35.795Z,0.80
2019-01-26T00:03:35.949Z,0.82
2019-01-26T00:04:36.064Z,0.87
2019-01-26T00:05:36.199Z,0.85
2019-01-26T00:06:36.321Z,0.84
2019-01-26T00:07:36.463Z,0.84
2019-01-26T00:08:36.585Z,0.84
2019-01-26T00:09:36.712Z,0.78
2019-01-26T00:10:36.838Z,0.85
2019-01-26T00:11:37.140Z,0.87
2019-01-26T00:12:37.082Z,0.80
2019-01-26T00:13:37.206Z,0.85
2019-01-26T00:14:37.352Z,0.87
2019-01-26T00:15:37.566Z,0.87
2019-01-26T00:16:37.600Z,0.90
2019-01-26T00:17:37.729Z,0.94
2019-01-26T00:18:37.895Z,0.87
2019-01-26T00:19:38.005Z,0.90
2019-01-26T00:20:38.129Z,0.90
2019-01-26T00:21:38.278Z,0.85
2019-01-26T00:22:38.403Z,0.87
2019-01-26T00:23:38.527Z,0.82
2019-01-26T00:24:38.665Z,0.85
2019-01-26T00:25:38.781Z,0.85
2019-01-26T00:26:38.907Z,0.82
2019-01-26T00:27:39.028Z,0.92
2019-01-26T00:28:39.218Z,0.94
2019-01-26T00:29:39.325Z,0.88
2019-01-26T00:30:39.451Z,0.87
2019-01-26T00:31:40.169Z,0.81
2019-01-26T00:32:39.714Z,0.98
2019-01-26T00:33:43.320Z,0.99
2019-01-26T00:34:39.960Z,0.92
2019-01-26T00:35:40.083Z,0.88
2019-01-26T00:36:40.225Z,0.90
2019-01-26T00:37:40.351Z,0.87
2019-01-26T00:38:40.476Z,0.85
2019-01-26T00:39:40.602Z,0.82
2019-01-26T00:40:40.756Z,0.87
2019-01-26T00:41:40.885Z,0.90
2019-01-26T00:42:41.005Z,0.88
2019-01-26T00:43:41.130Z,1.03
2019-01-26T00:44:41.288Z,0.98
2019-01-26T00:45:41.411Z,0.99
2019-01-26T00:46:41.538Z,0.85
2019-01-26T00:47:41.669Z,0.96
2019-01-26T00:48:41.846Z,0.88
2019-01-26T00:49:41.971Z,0.98
2019-01-26T00:50:42.093Z,1.05
2019-01-26T00:51:42.220Z,0.90
2019-01-26T00:52:42.347Z,0.98
2019-01-26T00:53:42.504Z,1.05
2019-01-26T00:54:42.651Z,1.08
2019-01-26T00:55:42.764Z,1.03
2019-01-26T00:56:42.905Z,1.00
2019-01-26T00:57:43.028Z,0.94
2019-01-26T00:58:43.170Z,1.00
2019-01-26T00:59:43.318Z,1.02
2019-01-26T01:00:43.443Z,1.05
2019-01-26T01:01:43.571Z,0.99
2019-01-26T01:02:43.695Z,1.08
2019-01-26T01:03:43.824Z,1.13
2019-01-26T01:04:43.944Z,1.16
2019-01-26T01:05:44.069Z,1.06
2019-01-26T01:06:44.200Z,1.08
2019-01-26T01:07:44.393Z,1.12
2019-01-26T01:08:44.448Z,1.13
2019-01-26T01:09:44.640Z,1.13
2019-01-26T01:10:44.704Z,1.13
2019-01-26T01:11:44.829Z,1.21
2019-01-26T01:12:44.954Z,1.26
2019-01-26T01:13:45.076Z,1.21
2019-01-26T01:14:45.233Z,1.20
2019-01-26T01:15:45.312Z,1.18
2019-01-26T01:16:45.436Z,1.28
2019-01-26T01:17:45.560Z,1.21
2019-01-26T01:18:45.735Z,1.23
2019-01-26T01:19:45.830Z,1.26
2019-01-26T01:20:45.997Z,1.26
2019-01-26T01:21:46.121Z,1.24
2019-01-26T01:22:46.226Z,1.27
2019-01-26T01:23:46.384Z,1.28
2019-01-26T01:24:46.476Z,1.27
2019-01-26T01:25:46.600Z,1.24
2019-01-26T01:26:46.732Z,1.35
2019-01-26T01:27:46.854Z,1.28
2019-01-26T01:28:46.989Z,1.27
2019-01-26T01:29:47.112Z,1.20
2019-01-26T01:30:47.240Z,1.30
2019-01-26T01:31:47.358Z,1.30
2019-01-26T01:32:47.491Z,1.23
2019-01-26T01:33:47.612Z,1.27
2019-01-26T01:34:47.752Z,1.27
2019-01-26T01:35:47.862Z,1.21
2019-01-26T01:36:47.981Z,1.38
2019-01-26T01:37:48.124Z,1.36
2019-01-26T01:38:48.246Z,1.30
2019-01-26T01:39:48.365Z,1.31
2019-01-26T01:40:48.488Z,1.31
2019-01-26T01:41:48.613Z,1.42
2019-01-26T01:42:48.740Z,1.44
2019-01-26T01:43:48.862Z,1.45
2019-01-26T01:44:48.992Z,1.46
2019-01-26T01:45:49.114Z,1.49
2019-01-26T01:46:49.232Z,1.57
2019-01-26T01:47:49.393Z,1.42
2019-01-26T01:48:49.479Z,1.46
2019-01-26T01:49:49.603Z,1.49
2019-01-26T01:50:49.731Z,1.48
2019-01-26T01:51:49.864Z,1.55
2019-01-26T01:52:49.986Z,1.45
2019-01-26T01:53:50.129Z,1.52
2019-01-26T01:54:50.260Z,1.56
2019-01-26T01:55:50.381Z,1.56
2019-01-26T01:56:50.503Z,1.55
2019-01-26T01:57:50.663Z,1.44
2019-01-26T01:58:50.791Z,1.56
2019-01-26T01:59:50.912Z,1.57
2019-01-26T02:00:51.034Z,1.57
2019-01-26T02:01:51.194Z,1.52
2019-01-26T02:02:51.309Z,1.53
2019-01-26T02:03:51.435Z,1.63
2019-01-26T02:04:51.580Z,1.49
2019-01-26T02:05:51.744Z,1.56
2019-01-26T02:06:51.869Z,1.62
2019-01-26T02:07:51.992Z,1.64
2019-01-26T02:08:52.136Z,1.63
2019-01-26T02:09:52.261Z,1.69
2019-01-26T02:10:52.391Z,1.66
2019-01-26T02:11:52.516Z,1.67
2019-01-26T02:12:52.671Z,1.73
2019-01-26T02:13:52.796Z,1.66
2019-01-26T02:14:52.922Z,1.77
2019-01-26T02:15:53.050Z,1.78
2019-01-26T02:16:53.176Z,1.85
2019-01-26T02:17:53.298Z,1.82
2019-01-26T02:18:53.419Z,1.74
2019-01-26T02:19:53.603Z,1.81
2019-01-26T02:20:53.729Z,1.78
2019-01-26T02:21:53.847Z,1.78
2019-01-26T02:22:54.027Z,1.97
2019-01-26T02:23:54.158Z,1.85
2019-01-26T02:24:54.283Z,1.91
2019-01-26T02:25:54.448Z,2.04
2019-01-26T02:26:54.523Z,1.93
2019-01-26T02:27:54.653Z,1.87
2019-01-26T02:28:54.814Z,1.93
2019-01-26T02:29:54.898Z,1.93
2019-01-26T02:30:55.022Z,1.82
2019-01-26T02:31:55.150Z,1.85
2019-01-26T02:32:55.274Z,1.87
2019-01-26T02:33:55.421Z,1.91
2019-01-26T02:34:55.546Z,1.95
2019-01-26T02:35:55.670Z,1.95
2019-01-26T02:36:55.814Z,1.93
2019-01-26T02:37:55.938Z,2.01
2019-01-26T02:38:56.061Z,2.01
2019-01-26T02:39:56.245Z,2.00
2019-01-26T02:40:56.249Z,2.07
2019-01-26T02:41:56.373Z,2.10
2019-01-26T02:42:56.502Z,2.04
2019-01-26T02:43:56.626Z,2.10
2019-01-26T02:44:56.754Z,2.10
2019-01-26T02:45:56.875Z,2.15
2019-01-26T02:46:58.088Z,2.15
2019-01-26T02:47:57.127Z,2.14
2019-01-26T02:48:57.248Z,2.18
2019-01-26T02:49:57.397Z,2.10
2019-01-26T02:50:57.541Z,2.15
2019-01-26T02:51:57.668Z,2.14
2019-01-26T02:52:57.796Z,2.14
2019-01-26T02:53:57.923Z,2.17
2019-01-26T02:54:58.047Z,2.18
2019-01-26T02:55:58.174Z,2.21
2019-01-26T02:56:58.303Z,2.28
2019-01-26T02:57:58.424Z,2.19
2019-01-26T02:58:58.551Z,2.14
2019-01-26T02:59:58.674Z,2.22
2019-01-26T03:00:58.803Z,2.28
2019-01-26T03:01:58.934Z,2.29
2019-01-26T03:02:59.058Z,2.25
2019-01-26T03:03:59.188Z,2.19
2019-01-26T03:04:59.299Z,2.32
2019-01-26T03:05:59.425Z,2.30
2019-01-26T03:06:59.549Z,2.30
2019-01-26T03:07:59.682Z,2.36
2019-01-26T03:08:59.808Z,2.35
2019-01-26T03:09:59.931Z,2.30
2019-01-26T03:11:01.004Z,2.37
2019-01-26T03:12:00.163Z,2.37
2019-01-26T03:13:00.287Z,2.33
2019-01-26T03:14:00.405Z,2.32
2019-01-26T03:15:00.540Z,2.36
2019-01-26T03:16:00.663Z,2.43
2019-01-26T03:17:05.956Z,2.37
2019-01-26T03:18:00.949Z,2.37
2019-01-26T03:19:01.034Z,2.37
2019-01-26T03:20:01.169Z,2.45
2019-01-26T03:21:01.291Z,2.50
2019-01-26T03:22:01.419Z,2.53
2019-01-26T03:23:01.545Z,2.51
2019-01-26T03:24:01.680Z,2.43
2019-01-26T03:25:01.858Z,2.51
2019-01-26T03:26:01.905Z,2.48
2019-01-26T03:27:02.018Z,2.42
2019-01-26T03:28:02.143Z,2.45
2019-01-26T03:29:02.265Z,2.50
2019-01-26T03:30:02.388Z,2.48
2019-01-26T03:31:02.519Z,2.54
2019-01-26T03:32:02.646Z,2.60
2019-01-26T03:33:02.774Z,2.51
2019-01-26T03:34:02.903Z,2.51
2019-01-26T03:35:03.026Z,2.54
2019-01-26T03:36:03.152Z,2.48
2019-01-26T03:37:03.275Z,2.50
2019-01-26T03:38:03.403Z,2.54
2019-01-26T03:39:04.011Z,2.61
2019-01-26T03:40:03.622Z,2.51
2019-01-26T03:41:03.749Z,2.51
2019-01-26T03:42:03.875Z,2.53
2019-01-26T03:43:04.009Z,2.58
2019-01-26T03:44:04.142Z,2.61
2019-01-26T03:45:04.263Z,2.66
2019-01-26T03:46:04.389Z,2.60
2019-01-26T03:47:04.509Z,2.65
2019-01-26T03:48:04.642Z,2.66
2019-01-26T03:49:04.764Z,2.69
2019-01-26T03:50:04.895Z,2.66
2019-01-26T03:51:05.021Z,2.60
2019-01-26T03:52:05.171Z,2.66
2019-01-26T03:53:05.288Z,2.69
2019-01-26T03:54:05.420Z,2.58
2019-01-26T03:55:05.543Z,2.68
2019-01-26T03:56:05.669Z,2.72
2019-01-26T03:57:05.790Z,2.71
2019-01-26T03:58:05.927Z,2.68
2019-01-26T03:59:06.056Z,2.72
2019-01-26T04:00:06.178Z,2.65
2019-01-26T04:01:06.306Z,2.71
2019-01-26T04:02:06.429Z,2.73
2019-01-26T04:03:06.569Z,2.65
2019-01-26T04:04:06.688Z,2.72
2019-01-26T04:05:06.812Z,2.66
2019-01-26T04:06:06.941Z,2.65
2019-01-26T04:07:07.070Z,2.63
2019-01-26T04:08:07.194Z,2.66
2019-01-26T04:09:07.321Z,2.66
2019-01-26T04:10:07.460Z,2.72
2019-01-26T04:11:07.586Z,2.65
2019-01-26T04:12:07.703Z,2.66
2019-01-26T04:13:07.841Z,2.78
2019-01-26T04:14:07.949Z,2.69
2019-01-26T04:15:08.076Z,2.78
2019-01-26T04:16:08.204Z,2.73
2019-01-26T04:17:08.328Z,2.69
2019-01-26T04:18:08.467Z,2.79
2019-01-26T04:19:08.600Z,2.79
2019-01-26T04:20:08.727Z,2.86
2019-01-26T04:21:08.855Z,2.78
2019-01-26T04:22:08.978Z,2.79
2019-01-26T04:23:09.132Z,2.84
2019-01-26T04:24:09.254Z,2.81
2019-01-26T04:25:09.378Z,2.81
2019-01-26T04:26:09.511Z,2.86
2019-01-26T04:27:10.216Z,2.75
2019-01-26T04:28:09.738Z,2.75
2019-01-26T04:29:11.409Z,2.84
2019-01-26T04:30:09.995Z,2.86
2019-01-26T04:31:10.129Z,2.84
2019-01-26T04:32:10.255Z,2.73
2019-01-26T04:33:10.383Z,2.81
2019-01-26T04:34:10.507Z,2.87
2019-01-26T04:35:10.630Z,2.89
2019-01-26T04:36:10.754Z,2.91
2019-01-26T04:37:10.893Z,2.91
2019-01-26T04:38:11.011Z,2.84
2019-01-26T04:39:11.138Z,2.89
2019-01-26T04:40:11.261Z,2.89
2019-01-26T04:41:11.385Z,2.87
2019-01-26T04:42:11.508Z,2.82
2019-01-26T04:43:11.639Z,2.84
2019-01-26T04:44:11.878Z,2.90
2019-01-26T04:45:11.898Z,2.89
2019-01-26T04:46:12.004Z,2.90
2019-01-26T04:47:12.131Z,2.89
2019-01-26T04:48:12.260Z,2.94
2019-01-26T04:49:12.394Z,3.00
2019-01-26T04:50:12.522Z,2.91
2019-01-26T04:51:12.654Z,2.89
2019-01-26T04:52:12.776Z,2.94
2019-01-26T04:53:12.905Z,2.90
2019-01-26T04:54:13.032Z,2.96
2019-01-26T04:55:13.163Z,2.93
2019-01-26T04:56:13.283Z,2.90
2019-01-26T04:57:13.410Z,2.97
2019-01-26T04:58:13.546Z,3.04
2019-01-26T04:59:13.665Z,3.04
2019-01-26T05:00:13.791Z,2.99
2019-01-26T05:01:13.943Z,2.97
2019-01-26T05:02:14.060Z,3.02
2019-01-26T05:03:14.185Z,3.05
2019-01-26T05:04:14.306Z,2.91
2019-01-26T05:05:14.436Z,3.08
2019-01-26T05:06:14.562Z,3.02
2019-01-26T05:07:14.691Z,3.14
2019-01-26T05:08:14.820Z,3.05
2019-01-26T05:09:14.959Z,2.99
2019-01-26T05:10:15.079Z,3.08
2019-01-26T05:11:15.210Z,3.14
2019-01-26T05:12:15.340Z,3.14
2019-01-26T05:13:15.466Z,3.09
2019-01-26T05:14:15.592Z,3.07
2019-01-26T05:15:15.717Z,3.02
2019-01-26T05:16:15.845Z,3.02
2019-01-26T05:17:15.987Z,3.09
2019-01-26T05:18:16.111Z,3.04
2019-01-26T05:19:16.235Z,3.08
2019-01-26T05:20:16.366Z,3.09
2019-01-26T05:21:16.509Z,3.09
2019-01-26T05:22:16.634Z,3.05
2019-01-26T05:23:16.759Z,3.08
2019-01-26T05:24:16.886Z,3.14
2019-01-26T05:25:17.050Z,3.08
2019-01-26T05:26:17.263Z,3.15
2019-01-26T05:27:17.264Z,3.11
2019-01-26T05:28:17.392Z,3.12
2019-01-26T05:29:17.519Z,3.12
2019-01-26T05:30:17.645Z,3.17
2019-01-26T05:31:17.769Z,3.14
2019-01-26T05:32:17.896Z,3.17
2019-01-26T05:33:18.089Z,3.15
2019-01-26T05:34:18.195Z,3.20
2019-01-26T05:35:18.324Z,3.09
2019-01-26T05:36:18.445Z,3.22
2019-01-26T05:37:18.576Z,3.26
2019-01-26T05:38:18.700Z,3.17
2019-01-26T05:39:20.043Z,3.17
2019-01-26T05:40:18.953Z,3.26
2019-01-26T05:41:19.083Z,3.18
2019-01-26T05:42:19.208Z,3.23
2019-01-26T05:43:19.343Z,3.29
2019-01-26T05:44:19.467Z,3.29
2019-01-26T05:45:19.590Z,3.29
2019-01-26T05:46:19.723Z,3.32
2019-01-26T05:47:19.842Z,3.30
2019-01-26T05:48:19.972Z,3.30
2019-01-26T05:49:20.098Z,3.32
2019-01-26T05:50:20.230Z,3.32
2019-01-26T05:51:20.352Z,3.33
2019-01-26T05:52:20.476Z,3.44
2019-01-26T05:53:20.605Z,3.37
2019-01-26T05:54:20.725Z,3.29
2019-01-26T05:55:20.851Z,3.29
2019-01-26T05:56:20.982Z,3.26
2019-01-26T05:57:21.111Z,3.35
2019-01-26T05:58:21.232Z,3.37
2019-01-26T05:59:21.357Z,3.37
2019-01-26T06:00:21.488Z,3.30
2019-01-26T06:01:21.620Z,3.36
2019-01-26T06:02:21.746Z,3.37
2019-01-26T06:03:21.885Z,3.48
2019-01-26T06:04:22.010Z,3.44
2019-01-26T06:05:22.136Z,3.42
2019-01-26T06:06:22.267Z,3.36
2019-01-26T06:07:22.383Z,3.32
2019-01-26T06:08:22.514Z,3.42
2019-01-26T06:09:22.642Z,3.45
2019-01-26T06:10:22.776Z,3.48
2019-01-26T06:11:22.902Z,3.45
2019-01-26T06:12:23.036Z,3.52
2019-01-26T06:13:23.163Z,3.51
2019-01-26T06:14:23.294Z,3.49
2019-01-26T06:15:23.418Z,3.51
2019-01-26T06:16:23.547Z,3.56
2019-01-26T06:17:23.678Z,3.54
2019-01-26T06:18:23.803Z,3.48
2019-01-26T06:19:23.935Z,3.52
2019-01-26T06:20:24.077Z,3.49
2019-01-26T06:21:24.202Z,3.60
2019-01-26T06:22:24.322Z,3.52
2019-01-26T06:23:24.462Z,3.59
2019-01-26T06:24:24.587Z,3.51
2019-01-26T06:25:24.715Z,3.52
2019-01-26T06:26:24.876Z,3.62
2019-01-26T06:27:25.009Z,3.62
2019-01-26T06:28:25.153Z,3.59
2019-01-26T06:29:25.334Z,3.60
2019-01-26T06:30:25.460Z,3.54
2019-01-26T06:31:25.586Z,3.59
2019-01-26T06:32:25.712Z,3.70
2019-01-26T06:33:25.858Z,3.80
2019-01-26T06:34:26.012Z,3.73
2019-01-26T06:35:26.153Z,3.72
2019-01-26T06:36:26.258Z,3.63
2019-01-26T06:37:26.384Z,3.67
2019-01-26T06:38:26.512Z,3.74
2019-01-26T06:39:26.638Z,3.81
2019-01-26T06:40:26.832Z,3.88
2019-01-26T06:41:26.829Z,3.76
2019-01-26T06:42:26.961Z,3.78
2019-01-26T06:43:27.107Z,3.80
2019-01-26T06:44:27.233Z,3.69
2019-01-26T06:45:27.360Z,3.69
2019-01-26T06:46:27.487Z,3.63
2019-01-26T06:47:27.617Z,3.63
2019-01-26T06:48:27.746Z,3.64
2019-01-26T06:49:27.875Z,3.66
2019-01-26T06:50:27.997Z,3.67
2019-01-26T06:51:28.124Z,3.69
2019-01-26T06:52:28.256Z,3.63
2019-01-26T06:53:28.379Z,3.64
2019-01-26T06:54:28.509Z,3.64
2019-01-26T06:55:28.649Z,3.72
2019-01-26T06:56:28.770Z,3.70
2019-01-26T06:57:28.901Z,3.66
2019-01-26T06:58:29.166Z,3.69
2019-01-26T06:59:29.198Z,3.66
2019-01-26T07:00:29.293Z,3.67
2019-01-26T07:01:29.422Z,3.70
2019-01-26T07:02:29.551Z,3.66
2019-01-26T07:03:30.310Z,3.69
2019-01-26T07:04:29.848Z,3.66
2019-01-26T07:05:29.975Z,3.69
2019-01-26T07:06:30.107Z,3.80
2019-01-26T07:07:30.254Z,3.82
2019-01-26T07:08:30.386Z,3.76
2019-01-26T07:09:30.510Z,3.91
2019-01-26T07:10:30.634Z,3.84
2019-01-26T07:11:30.798Z,3.81
2019-01-26T07:12:30.923Z,3.76
2019-01-26T07:13:31.083Z,3.87
2019-01-26T07:14:31.241Z,3.78
2019-01-26T07:15:31.375Z,3.92
2019-01-26T07:16:31.499Z,3.85
2019-01-26T07:17:31.873Z,3.80
2019-01-26T07:18:31.775Z,3.78
2019-01-26T07:19:31.880Z,3.82
2019-01-26T07:20:32.007Z,3.85
2019-01-26T07:21:32.211Z,3.81
2019-01-26T07:22:32.276Z,3.82
2019-01-26T07:23:32.413Z,3.87
2019-01-26T07:24:32.545Z,3.84
2019-01-26T07:25:32.674Z,3.78
2019-01-26T07:26:32.831Z,3.81
2019-01-26T07:27:32.949Z,3.87
2019-01-26T07:28:33.086Z,3.92
2019-01-26T07:29:33.216Z,3.87
2019-01-26T07:30:33.363Z,3.84
2019-01-26T07:31:33.474Z,3.82
2019-01-26T07:32:33.598Z,3.82
2019-01-26T07:33:33.723Z,3.81
2019-01-26T07:34:33.870Z,3.87
2019-01-26T07:35:33.995Z,3.96
2019-01-26T07:36:34.125Z,3.87
2019-01-26T07:37:34.252Z,4.00
2019-01-26T07:38:34.392Z,3.88
2019-01-26T07:39:34.544Z,3.91
2019-01-26T07:40:34.669Z,3.88
2019-01-26T07:41:34.793Z,4.03
2019-01-26T07:42:34.938Z,3.98
2019-01-26T07:43:35.065Z,3.91
2019-01-26T07:44:35.188Z,3.96
2019-01-26T07:45:35.312Z,3.94
2019-01-26T07:46:35.456Z,4.03
2019-01-26T07:47:35.592Z,4.03
2019-01-26T07:48:35.709Z,4.00
2019-01-26T07:49:35.864Z,3.98
2019-01-26T07:50:36.046Z,3.92
2019-01-26T07:51:36.172Z,3.87
2019-01-26T07:52:36.365Z,4.06
2019-01-26T07:53:36.384Z,3.88
2019-01-26T07:54:36.508Z,3.91
2019-01-26T07:55:36.634Z,4.03
2019-01-26T07:56:36.774Z,3.94
2019-01-26T07:57:36.910Z,3.91
2019-01-26T07:58:37.034Z,3.85
2019-01-26T07:59:37.163Z,3.94
2019-01-26T08:00:37.294Z,4.02
2019-01-26T08:01:37.421Z,4.03
2019-01-26T08:02:37.545Z,3.94
2019-01-26T08:03:37.670Z,4.05
2019-01-26T08:04:37.804Z,4.17
2019-01-26T08:05:37.991Z,4.10
2019-01-26T08:06:38.008Z,4.12
2019-01-26T08:07:38.127Z,4.12
2019-01-26T08:08:38.278Z,4.00
2019-01-26T08:09:38.411Z,3.98
2019-01-26T08:10:38.549Z,4.10
2019-01-26T08:11:38.747Z,3.99
2019-01-26T08:12:38.747Z,4.00
2019-01-26T08:13:38.875Z,4.09
2019-01-26T08:14:39.032Z,4.06
2019-01-26T08:15:39.155Z,4.21
2019-01-26T08:16:39.294Z,4.03
2019-01-26T08:17:39.425Z,4.00
2019-01-26T08:18:39.556Z,4.17
2019-01-26T08:19:40.117Z,4.09
2019-01-26T08:20:39.818Z,4.12
2019-01-26T08:21:39.944Z,4.09
2019-01-26T08:22:40.074Z,4.12
2019-01-26T08:23:40.217Z,4.08
2019-01-26T08:24:40.343Z,4.05
2019-01-26T08:25:40.477Z,4.10
2019-01-26T08:26:40.593Z,4.13
2019-01-26T08:27:40.744Z,4.08
2019-01-26T08:28:40.871Z,4.08
2019-01-26T08:29:41.002Z,4.10
2019-01-26T08:30:41.132Z,4.08
2019-01-26T08:31:41.291Z,4.17
2019-01-26T08:32:41.420Z,4.20
2019-01-26T08:33:41.553Z,4.21
2019-01-26T08:34:41.673Z,4.09
2019-01-26T08:35:41.903Z,4.05
2019-01-26T08:36:41.931Z,4.09
2019-01-26T08:37:42.057Z,4.09
2019-01-26T08:38:42.188Z,4.17
2019-01-26T08:39:42.350Z,4.20
2019-01-26T08:40:42.477Z,4.26
2019-01-26T08:41:42.603Z,4.17
2019-01-26T08:42:42.728Z,4.20
2019-01-26T08:43:42.853Z,4.06
2019-01-26T08:44:42.981Z,4.09
2019-01-26T08:45:43.105Z,4.00
2019-01-26T08:46:43.237Z,4.00
2019-01-26T08:47:43.362Z,4.08
2019-01-26T08:48:43.485Z,4.13
2019-01-26T08:49:43.609Z,4.20
2019-01-26T08:50:43.736Z,4.16
2019-01-26T08:51:43.869Z,4.26
2019-01-26T08:52:43.993Z,4.27
2019-01-26T08:53:44.121Z,4.21
2019-01-26T08:54:44.258Z,4.20
2019-01-26T08:55:44.382Z,4.23
2019-01-26T08:56:44.512Z,4.23
2019-01-26T08:57:44.662Z,4.26
2019-01-26T08:58:44.780Z,4.24
2019-01-26T08:59:44.917Z,4.18
2019-01-26T09:00:45.051Z,4.17
2019-01-26T09:01:45.198Z,4.26
2019-01-26T09:02:45.314Z,4.27
2019-01-26T09:03:45.439Z,4.20
2019-01-26T09:04:45.567Z,4.20
2019-01-26T09:05:45.723Z,4.20
2019-01-26T09:06:45.851Z,4.26
2019-01-26T09:07:45.972Z,4.18
2019-01-26T09:08:46.098Z,4.18
2019-01-26T09:09:46.234Z,4.24
2019-01-26T09:10:46.353Z,4.23
2019-01-26T09:11:46.491Z,4.27
2019-01-26T09:12:46.624Z,4.30
2019-01-26T09:13:46.749Z,4.24
2019-01-26T09:14:46.899Z,4.21
2019-01-26T09:15:47.027Z,4.30
2019-01-26T09:16:47.155Z,4.20
2019-01-26T09:17:47.281Z,4.30
2019-01-26T09:18:47.426Z,4.24
2019-01-26T09:19:47.555Z,4.35
2019-01-26T09:20:47.677Z,4.34
2019-01-26T09:21:47.801Z,4.38
2019-01-26T09:22:47.930Z,4.46
2019-01-26T09:23:48.084Z,4.43
2019-01-26T09:24:48.225Z,4.39
2019-01-26T09:25:48.363Z,4.45
2019-01-26T09:26:49.073Z,4.45
2019-01-26T09:27:48.641Z,4.56
2019-01-26T09:28:48.770Z,4.45
2019-01-26T09:29:48.898Z,4.56
2019-01-26T09:30:49.040Z,4.51
2019-01-26T09:31:49.165Z,4.45
2019-01-26T09:32:49.296Z,4.54
2019-01-26T09:33:49.422Z,4.51
2019-01-26T09:34:49.557Z,4.56
2019-01-26T09:35:49.678Z,4.54
2019-01-26T09:36:49.811Z,4.49
2019-01-26T09:37:49.937Z,4.60
2019-01-26T09:38:50.069Z,4.48
2019-01-26T09:39:50.193Z,4.60
2019-01-26T09:40:50.321Z,4.61
2019-01-26T09:41:50.448Z,4.56
2019-01-26T09:42:50.579Z,4.48
2019-01-26T09:43:50.715Z,4.49
2019-01-26T09:44:50.841Z,4.57
2019-01-26T09:45:50.971Z,4.56
2019-01-26T09:46:51.098Z,4.48
2019-01-26T09:47:51.281Z,4.63
2019-01-26T09:48:51.411Z,4.54
2019-01-26T09:49:51.543Z,4.46
2019-01-26T09:50:51.675Z,4.56
2019-01-26T09:51:51.826Z,4.54
2019-01-26T09:52:51.969Z,4.56
2019-01-26T09:53:52.173Z,4.49
2019-01-26T09:54:52.257Z,4.48
2019-01-26T09:55:52.442Z,4.57
2019-01-26T09:56:52.532Z,4.51
2019-01-26T09:57:52.664Z,4.48
2019-01-26T09:58:52.826Z,4.49
2019-01-26T09:59:53.009Z,4.57
2019-01-26T10:00:53.007Z,4.56
2019-01-26T10:01:53.149Z,4.51
2019-01-26T10:02:53.283Z,4.49
2019-01-26T10:03:53.418Z,4.57
2019-01-26T10:04:53.548Z,4.56
2019-01-26T10:05:53.733Z,4.57
2019-01-26T10:06:53.789Z,4.56
2019-01-26T10:07:53.913Z,4.57
2019-01-26T10:08:54.040Z,4.49
2019-01-26T10:09:54.163Z,4.57
2019-01-26T10:10:55.349Z,4.49
2019-01-26T10:11:54.429Z,4.57
2019-01-26T10:12:54.555Z,4.59
2019-01-26T10:13:54.685Z,4.57
2019-01-26T10:14:54.809Z,4.59
2019-01-26T10:15:54.938Z,4.63
2019-01-26T10:16:55.068Z,4.63
2019-01-26T10:17:55.193Z,4.53
2019-01-26T10:18:55.320Z,4.61
2019-01-26T10:19:55.485Z,4.59
2019-01-26T10:20:55.611Z,4.61
2019-01-26T10:21:55.737Z,4.66
2019-01-26T10:22:55.867Z,4.56
2019-01-26T10:23:55.992Z,4.61
2019-01-26T10:24:56.127Z,4.72
2019-01-26T10:25:56.252Z,4.61
2019-01-26T10:26:56.416Z,4.69
2019-01-26T10:27:56.571Z,4.61
2019-01-26T10:28:56.675Z,4.66
2019-01-26T10:29:56.820Z,4.66
2019-01-26T10:30:56.947Z,4.64
2019-01-26T10:31:57.067Z,4.72
2019-01-26T10:32:57.269Z,4.74
2019-01-26T10:33:57.345Z,4.71
2019-01-26T10:34:57.468Z,4.77
2019-01-26T10:35:57.599Z,4.88
2019-01-26T10:36:57.727Z,4.78
2019-01-26T10:37:57.854Z,4.78
2019-01-26T10:38:57.987Z,4.89
2019-01-26T10:39:58.133Z,4.88
2019-01-26T10:40:58.271Z,4.72
2019-01-26T10:41:58.386Z,4.88
2019-01-26T10:42:58.560Z,4.77
2019-01-26T10:43:58.647Z,4.89
2019-01-26T10:44:58.789Z,4.88
2019-01-26T10:45:58.930Z,4.78
2019-01-26T10:46:59.082Z,4.94
2019-01-26T10:47:59.198Z,4.86
2019-01-26T10:49:00.805Z,4.93
2019-01-26T10:49:59.459Z,4.93
2019-01-26T10:51:00.197Z,4.93
2019-01-26T10:51:59.730Z,4.86
2019-01-26T10:52:59.855Z,5.01
2019-01-26T10:53:59.980Z,4.96
2019-01-26T10:55:00.205Z,4.89
2019-01-26T10:56:00.260Z,4.88
2019-01-26T10:57:00.394Z,4.88
2019-01-26T10:58:00.512Z,4.91
2019-01-26T10:59:00.652Z,4.94
2019-01-26T11:00:00.765Z,4.88
2019-01-26T11:01:00.903Z,4.91
2019-01-26T11:02:01.077Z,4.94
2019-01-26T11:03:01.207Z,4.88
2019-01-26T11:04:01.340Z,4.89
2019-01-26T11:05:01.463Z,5.00
2019-01-26T11:06:01.586Z,5.03
2019-01-26T11:07:01.729Z,5.03
2019-01-26T11:08:01.851Z,5.06
2019-01-26T11:09:01.988Z,5.11
2019-01-26T11:10:02.130Z,4.91
2019-01-26T11:11:02.381Z,4.97
2019-01-26T11:12:02.374Z,4.98
2019-01-26T11:13:02.513Z,4.97
2019-01-26T11:14:02.675Z,5.03
2019-01-26T11:15:02.800Z,4.98
2019-01-26T11:16:02.934Z,4.94
2019-01-26T11:17:03.055Z,4.93
2019-01-26T11:18:03.217Z,4.93
2019-01-26T11:19:07.862Z,4.97
2019-01-26T11:20:03.481Z,5.04
2019-01-26T11:21:03.603Z,4.88
2019-01-26T11:22:03.750Z,4.98
2019-01-26T11:23:03.873Z,4.94
2019-01-26T11:24:04.013Z,4.94
2019-01-26T11:25:04.147Z,4.96
2019-01-26T11:26:04.314Z,5.00
2019-01-26T11:27:04.421Z,5.01
2019-01-26T11:28:04.544Z,5.09
2019-01-26T11:29:04.668Z,5.04
2019-01-26T11:30:04.832Z,4.98
2019-01-26T11:31:04.959Z,5.06
2019-01-26T11:32:05.106Z,5.09
2019-01-26T11:33:05.224Z,5.11
2019-01-26T11:34:05.346Z,5.03
2019-01-26T11:35:05.476Z,5.09
2019-01-26T11:36:05.636Z,5.11
2019-01-26T11:37:05.755Z,5.00
2019-01-26T11:38:05.921Z,5.09
2019-01-26T11:39:06.006Z,5.01
2019-01-26T11:40:06.172Z,5.06
2019-01-26T11:41:06.286Z,5.09
2019-01-26T11:42:06.422Z,5.04
2019-01-26T11:43:06.566Z,5.03
2019-01-26T11:44:06.659Z,5.01
2019-01-26T11:45:06.787Z,5.07
2019-01-26T11:46:06.917Z,5.12
2019-01-26T11:47:07.089Z,5.11
2019-01-26T11:48:07.187Z,5.18
2019-01-26T11:49:07.315Z,5.07
2019-01-26T11:50:07.460Z,5.14
2019-01-26T11:51:07.578Z,5.12
2019-01-26T11:52:07.718Z,5.16
2019-01-26T11:53:07.856Z,5.18
2019-01-26T11:54:07.994Z,5.14
2019-01-26T11:55:08.113Z,5.15
2019-01-26T11:56:08.240Z,5.15
2019-01-26T11:57:08.388Z,5.21
2019-01-26T11:58:08.529Z,5.19
2019-01-26T11:59:08.661Z,5.14
2019-01-26T12:00:08.807Z,5.15
2019-01-26T12:01:08.940Z,5.09
2019-01-26T12:02:09.162Z,5.09
2019-01-26T12:03:09.168Z,5.18
2019-01-26T12:04:09.290Z,5.24
2019-01-26T12:05:09.431Z,5.14
2019-01-26T12:06:09.554Z,5.16
2019-01-26T12:07:09.686Z,5.18
2019-01-26T12:08:09.817Z,5.07
2019-01-26T12:09:09.963Z,5.15
2019-01-26T12:10:10.120Z,5.14
2019-01-26T12:11:10.244Z,5.12
2019-01-26T12:12:10.378Z,5.19
2019-01-26T12:13:10.518Z,5.09
2019-01-26T12:14:10.662Z,5.11
2019-01-26T12:15:10.786Z,5.11
2019-01-26T12:16:10.914Z,5.07
2019-01-26T12:17:11.066Z,5.01
2019-01-26T12:18:11.193Z,5.12
2019-01-26T12:19:11.293Z,5.14
2019-01-26T12:20:11.421Z,5.06
2019-01-26T12:21:11.572Z,5.16
2019-01-26T12:22:11.702Z,5.06
2019-01-26T12:23:11.841Z,5.12
2019-01-26T12:24:12.121Z,5.03
2019-01-26T12:25:12.118Z,5.07
2019-01-26T12:26:12.239Z,5.12
2019-01-26T12:27:12.370Z,5.09
2019-01-26T12:28:12.506Z,5.15
2019-01-26T12:29:12.665Z,5.06
2019-01-26T12:30:12.790Z,5.09
2019-01-26T12:31:12.921Z,5.11
2019-01-26T12:32:13.048Z,5.11
2019-01-26T12:33:13.209Z,5.12
2019-01-26T12:34:13.336Z,5.04
2019-01-26T12:35:13.468Z,5.14
2019-01-26T12:36:13.614Z,5.14
2019-01-26T12:37:13.754Z,5.16
2019-01-26T12:38:13.877Z,5.12
2019-01-26T12:39:14.014Z,5.15
2019-01-26T12:40:14.137Z,5.22
2019-01-26T12:41:14.268Z,5.25
2019-01-26T12:42:14.387Z,5.25
2019-01-26T12:43:14.519Z,5.24
2019-01-26T12:44:14.719Z,5.19
2019-01-26T12:45:14.801Z,5.24
2019-01-26T12:46:14.948Z,5.25
2019-01-26T12:47:17.092Z,5.32
2019-01-26T12:48:15.259Z,5.19
2019-01-26T12:49:15.350Z,5.25
2019-01-26T12:50:15.493Z,5.22
2019-01-26T12:51:15.627Z,5.33
2019-01-26T12:52:15.761Z,5.32
2019-01-26T12:53:15.888Z,5.32
2019-01-26T12:54:16.020Z,5.24
2019-01-26T12:55:16.174Z,5.19
2019-01-26T12:56:16.312Z,5.32
2019-01-26T12:57:16.426Z,5.36
2019-01-26T12:58:16.556Z,5.25
2019-01-26T12:59:16.688Z,5.34
2019-01-26T13:00:16.834Z,5.32
2019-01-26T13:01:17.033Z,5.37
2019-01-26T13:02:17.047Z,5.34
2019-01-26T13:03:17.178Z,5.39
2019-01-26T13:04:17.329Z,5.39
2019-01-26T13:05:17.455Z,5.29
2019-01-26T13:06:17.590Z,5.34
2019-01-26T13:07:17.704Z,5.39
2019-01-26T13:09:49.701Z,5.47
2019-01-26T13:10:49.827Z,5.47
2019-01-26T13:11:50.289Z,5.52
2019-01-26T13:12:50.095Z,5.61
2019-01-26T13:13:50.232Z,5.44
2019-01-26T13:14:50.354Z,5.58
2019-01-26T13:15:50.481Z,5.40
2019-01-26T13:16:50.618Z,5.54
2019-01-26T13:17:50.749Z,5.57
2019-01-26T13:18:50.873Z,5.50
2019-01-26T13:19:51.000Z,5.50
2019-01-26T13:20:51.139Z,5.62
2019-01-26T13:21:51.346Z,5.54